Time;durP1;ratioP1;P1;durP2;ratioP2;P2;SDS_P1;SDS_P2;PMS_P1;PMS_P2;Temp;Humidity;BMP_temperature;BMP_pressure;BME280_temperature;BME280_humidity;BME280_pressure;Samples;Min_cycle;Max_cycle;Signal;HPM_P1;HPM_P2
2022/05/09 00:01:13;;;;;;;3.17;2.43;;;20.30;72.80;;;;;;4995567;28;20416;-67
2022/05/09 00:03:44;;;;;;;4.20;2.33;;;20.30;72.80;;;;;;5012761;28;20537;-66
2022/05/09 00:06:10;;;;;;;5.17;2.87;;;20.30;72.80;;;;;;5013115;28;20411;-67
2022/05/09 00:08:39;;;;;;;3.70;2.33;;;20.30;72.80;;;;;;4995255;28;20845;-67
2022/05/09 00:11:06;;;;;;;3.13;2.50;;;20.30;72.70;;;;;;4979282;28;21100;-66
2022/05/09 00:13:35;;;;;;;2.90;2.13;;;20.30;72.70;;;;;;5012804;28;20452;-66
2022/05/09 00:16:07;;;;;;;6.40;2.30;;;20.20;72.60;;;;;;4995986;28;20440;-67
2022/05/09 00:18:33;;;;;;;7.23;2.90;;;20.20;72.60;;;;;;4994846;28;20575;-67
2022/05/09 00:20:59;;;;;;;2.73;2.50;;;20.20;72.50;;;;;;5012569;28;20826;-66
2022/05/09 00:23:27;;;;;;;4.73;2.50;;;20.20;72.50;;;;;;5012653;28;20423;-67
2022/05/09 00:25:53;;;;;;;3.80;2.40;;;20.20;72.70;;;;;;4995202;28;20413;-66
2022/05/09 00:28:25;;;;;;;5.10;2.73;;;20.10;72.30;;;;;;4979600;28;20438;-66
2022/05/09 00:30:54;;;;;;;4.90;2.73;;;20.10;72.50;;;;;;5012732;28;20405;-68
2022/05/09 00:33:24;;;;;;;3.73;2.83;;;20.10;72.40;;;;;;5010987;28;20516;-67
2022/05/09 00:35:53;;;;;;;3.20;2.17;;;20.10;72.40;;;;;;5012661;28;20486;-67
2022/05/09 00:38:19;;;;;;;5.13;2.50;;;20.10;72.40;;;;;;5011786;28;20613;-68
2022/05/09 00:43:39;;;;;;;3.93;2.50;;;20.00;72.30;;;;;;4994783;28;20529;-67
2022/05/09 00:46:06;;;;;;;3.83;2.50;;;20.00;72.30;;;;;;4994692;28;20407;-67
2022/05/09 00:48:32;;;;;;;4.70;2.93;;;20.00;72.40;;;;;;4978590;28;20456;-67
2022/05/09 00:51:04;;;;;;;4.13;2.63;;;20.00;72.40;;;;;;4978421;28;20417;-67
2022/05/09 00:53:34;;;;;;;5.00;2.57;;;19.90;72.40;;;;;;5010560;28;20967;-68
2022/05/09 00:56:07;;;;;;;3.83;2.30;;;20.00;72.50;;;;;;5012306;28;20477;-67
2022/05/09 00:58:52;;;;;;;3.80;2.60;;;19.90;72.40;;;;;;4994365;28;20443;-67
2022/05/09 01:01:22;;;;;;;5.20;3.17;;;19.90;72.50;;;;;;5011885;28;20402;-67
2022/05/09 01:03:59;;;;;;;3.90;2.70;;;19.90;72.50;;;;;;4994479;28;20404;-67
2022/05/09 01:06:26;;;;;;;4.10;3.00;;;19.80;72.40;;;;;;5012050;28;20392;-67
2022/05/09 01:08:52;;;;;;;4.30;2.63;;;19.80;72.40;;;;;;4977910;28;20970;-66
2022/05/09 01:11:24;;;;;;;3.30;2.70;;;19.80;72.50;;;;;;4994375;28;20461;-67
2022/05/09 01:14:02;;;;;;;7.20;2.70;;;19.80;72.40;;;;;;4978190;28;20453;-67
2022/05/09 01:16:28;;;;;;;3.77;2.70;;;19.80;72.50;;;;;;5011865;28;20444;-67
2022/05/09 01:18:56;;;;;;;8.03;2.87;;;19.80;72.50;;;;;;4994483;28;20457;-67
2022/05/09 01:21:34;;;;;;;3.73;2.10;;;19.80;72.50;;;;;;4994120;28;20406;-68
2022/05/09 01:24:04;;;;;;;3.90;2.80;;;19.80;72.50;;;;;;5011761;28;20461;-66
2022/05/09 01:26:36;;;;;;;5.63;3.30;;;19.70;72.50;;;;;;4994293;28;20417;-67
2022/05/09 01:29:08;;;;;;;6.03;2.97;;;19.70;72.50;;;;;;4994495;28;20503;-67
2022/05/09 01:31:35;;;;;;;3.00;2.53;;;19.70;72.50;;;;;;4993971;28;20829;-67
2022/05/09 01:34:08;;;;;;;7.50;3.10;;;19.60;72.40;;;;;;4978207;28;20436;-67
2022/05/09 01:36:38;;;;;;;6.40;3.30;;;19.60;72.50;;;;;;5011582;28;20448;-68
2022/05/09 01:39:11;;;;;;;6.30;2.97;;;19.60;72.40;;;;;;4994643;28;20440;-66
2022/05/09 01:41:42;;;;;;;5.30;3.30;;;19.60;72.40;;;;;;4959346;28;20515;-67
2022/05/09 01:44:12;;;;;;;3.73;3.07;;;19.60;73.30;;;;;;4974666;28;20480;-67
2022/05/09 01:49:30;;;;;;;6.93;2.60;;;19.50;72.50;;;;;;4991785;28;20454;-67
2022/05/09 01:52:00;;;;;;;3.23;2.30;;;19.50;72.50;;;;;;4974594;28;20888;-68
2022/05/09 01:54:28;;;;;;;3.67;2.70;;;19.50;72.50;;;;;;4991878;28;20413;-67
2022/05/09 01:56:56;;;;;;;5.13;3.00;;;19.50;72.50;;;;;;4991731;28;20438;-67
2022/05/09 01:59:23;;;;;;;3.60;2.30;;;19.50;72.50;;;;;;4990807;28;20517;-67
2022/05/09 02:01:59;;;;;;;5.50;3.30;;;19.50;72.60;;;;;;4991591;28;20476;-67
2022/05/09 02:04:28;;;;;;;3.27;2.70;;;19.40;72.40;;;;;;4991649;28;20529;-67
2022/05/09 02:06:55;;;;;;;4.70;3.10;;;19.40;72.40;;;;;;4990680;28;20490;-67
2022/05/09 02:09:23;;;;;;;4.70;2.80;;;19.40;72.40;;;;;;4991681;28;20460;-67
2022/05/09 02:11:54;;;;;;;4.63;2.90;;;19.40;72.50;;;;;;4998318;28;20464;-67
2022/05/09 02:14:22;;;;;;;3.83;2.63;;;19.30;72.40;;;;;;4993876;28;20423;-67
2022/05/09 02:16:55;;;;;;;3.87;3.20;;;19.40;72.50;;;;;;4993952;28;20480;-67
2022/05/09 02:19:24;;;;;;;3.80;2.77;;;19.30;72.40;;;;;;4977594;28;20440;-67
2022/05/09 02:21:55;;;;;;;3.67;2.50;;;19.30;72.50;;;;;;5010971;28;20492;-68
2022/05/09 02:24:24;;;;;;;5.20;2.80;;;19.30;72.60;;;;;;4993974;28;20502;-67
2022/05/09 02:26:55;;;;;;;6.43;2.70;;;19.30;72.50;;;;;;4993668;28;20432;-67
2022/05/09 02:29:25;;;;;;;3.80;2.57;;;19.30;72.60;;;;;;4993719;28;20445;-67
2022/05/09 02:31:51;;;;;;;5.57;2.47;;;19.20;72.40;;;;;;4993467;28;20448;-67
2022/05/09 02:34:23;;;;;;;9.37;3.20;;;19.20;72.40;;;;;;4993553;28;20456;-67
2022/05/09 02:36:49;;;;;;;3.60;3.13;;;19.20;72.50;;;;;;4977441;28;20502;-67
2022/05/09 02:39:15;;;;;;;3.73;3.17;;;19.20;72.50;;;;;;5010932;28;20464;-67
2022/05/09 02:41:42;;;;;;;2.33;2.10;;;19.20;72.60;;;;;;5010931;28;20443;-67
2022/05/09 02:44:13;;;;;;;3.60;2.83;;;19.10;72.50;;;;;;5014585;28;20501;-67
2022/05/09 02:46:42;;;;;;;4.30;2.67;;;19.10;72.50;;;;;;4996938;28;20431;-67
2022/05/09 02:49:11;;;;;;;3.40;2.40;;;19.10;72.50;;;;;;4996871;28;20454;-67
2022/05/09 02:51:40;;;;;;;3.70;2.60;;;19.10;72.50;;;;;;4996779;28;20444;-67
2022/05/09 02:54:09;;;;;;;4.13;2.53;;;19.10;72.50;;;;;;4997000;28;20408;-67
2022/05/09 02:56:37;;;;;;;5.07;3.27;;;19.10;72.50;;;;;;5014718;28;20439;-67
2022/05/09 02:59:03;;;;;;;5.10;3.03;;;19.00;72.40;;;;;;5014319;28;20436;-67
2022/05/09 03:01:34;;;;;;;4.30;3.27;;;19.00;72.40;;;;;;4996906;28;20425;-67
2022/05/09 03:06:45;;;;;;;4.40;3.10;;;19.00;72.40;;;;;;4996699;28;20397;-67
2022/05/09 03:09:11;;;;;;;6.73;3.00;;;19.00;72.40;;;;;;5014342;28;20439;-67
2022/05/09 03:11:37;;;;;;;3.97;3.00;;;19.00;72.40;;;;;;4996372;28;20586;-67
2022/05/09 03:14:06;;;;;;;4.20;2.83;;;19.00;72.40;;;;;;5014059;28;20400;-67
2022/05/09 03:16:32;;;;;;;5.93;3.07;;;18.90;72.30;;;;;;5013900;28;20444;-67
2022/05/09 03:18:57;;;;;;;5.10;3.30;;;18.90;72.30;;;;;;5013692;28;20445;-67
2022/05/09 03:21:24;;;;;;;5.27;3.67;;;18.90;72.30;;;;;;4964509;28;21155;-67
2022/05/09 03:23:52;;;;;;;5.20;3.37;;;18.90;72.30;;;;;;4996442;28;20526;-67
2022/05/09 03:26:22;;;;;;;3.63;2.60;;;18.90;72.30;;;;;;5014228;28;20396;-66
2022/05/09 03:28:48;;;;;;;4.97;3.43;;;18.90;72.30;;;;;;4996592;28;20444;-67
2022/05/09 03:31:14;;;;;;;4.30;3.07;;;18.80;72.20;;;;;;5013828;28;20408;-67
2022/05/09 03:33:41;;;;;;;3.70;2.97;;;18.80;72.20;;;;;;4996463;28;20817;-67
2022/05/09 03:36:11;;;;;;;4.70;2.40;;;18.80;72.20;;;;;;5014040;28;20416;-67
2022/05/09 03:38:38;;;;;;;4.77;3.40;;;18.80;72.20;;;;;;4996337;28;20550;-68
2022/05/09 03:41:04;;;;;;;4.93;3.27;;;18.80;72.30;;;;;;4996152;28;20433;-68
2022/05/09 03:43:30;;;;;;;4.13;3.00;;;18.70;72.20;;;;;;4996258;28;20412;-67
2022/05/09 03:45:58;;;;;;;4.33;2.80;;;18.70;72.20;;;;;;4996380;28;20460;-67
2022/05/09 03:48:24;;;;;;;6.00;3.63;;;18.70;72.20;;;;;;5013498;28;20587;-66
2022/05/09 03:50:53;;;;;;;4.23;2.93;;;18.70;72.20;;;;;;5013678;28;20786;-67
2022/05/09 03:53:19;;;;;;;4.80;3.50;;;18.70;72.20;;;;;;5012827;28;20448;-67
2022/05/09 03:55:45;;;;;;;4.10;2.90;;;18.70;72.20;;;;;;4995996;28;20404;-67
2022/05/09 03:58:11;;;;;;;5.20;3.67;;;18.70;72.30;;;;;;4979685;28;20704;-67
2022/05/09 04:00:40;;;;;;;5.00;3.17;;;18.60;72.20;;;;;;4996647;28;20397;-67
2022/05/09 04:03:11;;;;;;;5.10;3.10;;;18.60;72.30;;;;;;4996120;28;20542;-67
2022/05/09 04:05:40;;;;;;;3.90;2.97;;;18.60;72.30;;;;;;4995901;28;20498;-67
2022/05/09 04:08:10;;;;;;;4.97;3.77;;;18.60;72.30;;;;;;5012846;28;21040;-67
2022/05/09 04:10:37;;;;;;;4.07;2.93;;;18.60;72.40;;;;;;5012958;28;20419;-67
2022/05/09 04:13:07;;;;;;;4.70;2.93;;;18.60;72.40;;;;;;4979549;28;20449;-66
2022/05/09 04:18:26;;;;;;;4.50;3.33;;;18.50;72.30;;;;;;5013065;28;20841;-67
2022/05/09 04:20:52;;;;;;;5.90;3.67;;;18.50;72.40;;;;;;4995485;28;21025;-67
2022/05/09 04:23:23;;;;;;;4.03;2.90;;;18.50;72.30;;;;;;4996044;28;20408;-67
2022/05/09 04:25:49;;;;;;;4.10;3.30;;;18.50;72.40;;;;;;5013023;28;20427;-67
2022/05/09 04:28:22;;;;;;;5.13;3.33;;;18.40;72.30;;;;;;5012946;28;20916;-67
2022/05/09 04:30:54;;;;;;;4.57;3.07;;;18.40;72.30;;;;;;5012824;28;20443;-67
2022/05/09 04:33:22;;;;;;;6.43;3.40;;;18.40;72.30;;;;;;5012671;28;20446;-67
2022/05/09 04:35:48;;;;;;;7.00;3.20;;;18.40;73.30;;;;;;4995428;28;20431;-67
2022/05/09 04:38:21;;;;;;;3.97;3.03;;;18.40;72.40;;;;;;4994797;28;20466;-67
2022/05/09 04:40:51;;;;;;;5.37;2.73;;;18.40;72.40;;;;;;5012703;28;20968;-66
2022/05/09 04:43:27;;;;;;;4.00;3.10;;;18.40;72.50;;;;;;5012804;28;20409;-67
2022/05/09 04:45:56;;;;;;;4.60;3.43;;;18.40;72.50;;;;;;4995096;28;20530;-67
2022/05/09 04:48:22;;;;;;;4.80;3.30;;;18.40;72.60;;;;;;5012868;28;20435;-66
2022/05/09 04:50:52;;;;;;;4.90;3.80;;;18.30;72.50;;;;;;4995204;28;20827;-67
2022/05/09 04:53:26;;;;;;;4.47;3.37;;;18.30;72.50;;;;;;5012534;28;20480;-67
2022/05/09 04:55:56;;;;;;;3.60;3.07;;;18.30;72.50;;;;;;4995152;28;20947;-67
2022/05/09 04:58:25;;;;;;;5.20;3.50;;;18.30;72.60;;;;;;5012683;28;20436;-66
2022/05/09 05:00:52;;;;;;;4.50;3.70;;;18.30;72.70;;;;;;5012118;28;20409;-68
2022/05/09 05:03:20;;;;;;;6.67;3.30;;;18.30;72.70;;;;;;4995019;28;20500;-66
2022/05/09 05:05:54;;;;;;;4.03;3.43;;;18.20;72.60;;;;;;4994696;28;20472;-67
2022/05/09 05:08:21;;;;;;;5.30;3.07;;;18.30;72.90;;;;;;5012263;28;20941;-67
2022/05/09 05:10:53;;;;;;;4.17;3.10;;;18.20;72.70;;;;;;4978604;28;20455;-67
2022/05/09 05:13:25;;;;;;;5.40;3.20;;;18.20;72.90;;;;;;4994324;28;20550;-67
2022/05/09 05:15:52;;;;;;;5.33;3.13;;;18.20;72.90;;;;;;4994851;28;20450;-67
2022/05/09 05:18:23;;;;;;;6.07;3.93;;;18.20;73.00;;;;;;4994996;28;20861;-67
2022/05/09 05:20:49;;;;;;;3.77;3.20;;;18.20;73.00;;;;;;5012125;28;20978;-67
2022/05/09 05:23:21;;;;;;;6.40;3.77;;;18.20;73.10;;;;;;5011956;28;20405;-67
2022/05/09 05:25:47;;;;;;;4.27;3.17;;;18.20;73.20;;;;;;4994726;28;20403;-67
2022/05/09 05:28:17;;;;;;;6.00;3.33;;;18.10;73.20;;;;;;5012313;28;20957;-67
2022/05/09 05:30:49;;;;;;;4.70;3.13;;;18.10;73.20;;;;;;5011872;28;20766;-69
2022/05/09 05:33:17;;;;;;;4.53;3.33;;;18.10;73.30;;;;;;4994204;28;20486;-68
2022/05/09 05:35:45;;;;;;;4.57;3.37;;;18.10;73.40;;;;;;4994650;28;20404;-67
2022/05/09 05:38:13;;;;;;;4.40;3.20;;;18.10;73.40;;;;;;4994533;28;20946;-67
2022/05/09 05:40:39;;;;;;;7.87;3.50;;;18.10;73.40;;;;;;4994514;28;20430;-67
2022/05/09 05:43:07;;;;;;;6.67;3.43;;;18.10;73.50;;;;;;5011932;28;20494;-67
2022/05/09 05:45:35;;;;;;;5.70;3.07;;;18.10;73.50;;;;;;4994163;28;20177;-67
2022/05/09 05:48:09;;;;;;;7.43;4.00;;;18.10;73.60;;;;;;4994268;28;20455;-67
2022/05/09 05:50:39;;;;;;;6.70;3.50;;;18.10;73.60;;;;;;4978206;28;20461;-66
2022/05/09 05:53:08;;;;;;;3.90;3.13;;;18.10;73.70;;;;;;4994217;28;20459;-67
2022/05/09 05:55:36;;;;;;;4.33;3.20;;;18.00;73.70;;;;;;5011914;28;20412;-67
2022/05/09 05:58:02;;;;;;;5.87;3.37;;;18.00;73.80;;;;;;5011782;28;20432;-67
2022/05/09 06:00:31;;;;;;;3.50;3.20;;;18.00;73.80;;;;;;4994014;28;20411;-67
2022/05/09 06:02:59;;;;;;;5.50;3.20;;;18.00;73.80;;;;;;5011740;28;20400;-67
2022/05/09 06:05:25;;;;;;;4.23;3.03;;;18.00;73.80;;;;;;5011725;28;20474;-68
2022/05/09 06:07:55;;;;;;;4.80;3.30;;;18.00;73.90;;;;;;4977468;28;20454;-67
2022/05/09 06:10:22;;;;;;;4.90;2.97;;;18.00;73.90;;;;;;5011664;28;20882;-68
2022/05/09 06:12:51;;;;;;;5.40;3.60;;;18.00;73.90;;;;;;5011570;28;20475;-67
2022/05/09 06:15:31;;;;;;;4.53;3.53;;;18.00;74.00;;;;;;5011502;28;20444;-67
2022/05/09 06:18:00;;;;;;;7.17;3.20;;;18.00;74.10;;;;;;5013561;28;20930;-67
2022/05/09 06:20:33;;;;;;;6.47;3.60;;;18.00;74.10;;;;;;4982582;28;20490;-67
2022/05/09 06:23:03;;;;;;;4.67;3.17;;;18.00;74.20;;;;;;4997844;28;20423;-67
2022/05/09 06:25:31;;;;;;;6.57;3.77;;;18.00;74.30;;;;;;4997710;28;20928;-67
2022/05/09 06:28:01;;;;;;;3.60;2.67;;;17.90;74.20;;;;;;5013796;28;20411;-67
2022/05/09 06:30:29;;;;;;;5.27;3.57;;;18.00;74.40;;;;;;4997557;28;20868;-68
2022/05/09 06:32:56;;;;;;;4.10;3.13;;;18.00;74.30;;;;;;5015179;28;20937;-67
2022/05/09 06:35:25;;;;;;;4.60;3.37;;;17.90;74.20;;;;;;4997842;28;20930;-67
2022/05/09 06:38:05;;;;;;;3.83;3.27;;;17.90;74.30;;;;;;4962111;28;20417;-67
2022/05/09 06:40:38;;;;;;;4.20;2.70;;;17.90;74.40;;;;;;4995477;28;20491;-67
2022/05/09 06:43:05;;;;;;;3.73;3.00;;;17.90;74.30;;;;;;4993581;28;20454;-67
2022/05/09 06:45:34;;;;;;;6.80;3.20;;;17.90;74.40;;;;;;4965691;28;20419;-67
2022/05/09 06:48:00;;;;;;;3.57;2.90;;;17.90;74.30;;;;;;4997436;28;20459;-68
2022/05/09 06:50:30;;;;;;;3.50;3.07;;;18.00;74.40;;;;;;4997227;28;20408;-67
2022/05/09 06:53:00;;;;;;;5.33;2.70;;;17.90;74.20;;;;;;4980412;28;20461;-67
2022/05/09 06:55:27;;;;;;;2.87;2.33;;;17.90;74.20;;;;;;5013824;28;20968;-68
2022/05/09 06:57:55;;;;;;;3.90;3.27;;;17.90;74.10;;;;;;4981279;28;20459;-67
2022/05/09 07:00:24;;;;;;;4.10;2.50;;;17.90;74.10;;;;;;4997084;28;20412;-68
2022/05/09 07:02:51;;;;;;;3.47;3.17;;;18.00;74.30;;;;;;4997039;28;20407;-67
2022/05/09 07:05:20;;;;;;;3.47;2.83;;;17.90;74.10;;;;;;4997122;28;20933;-67
2022/05/09 07:07:47;;;;;;;4.20;2.53;;;18.00;74.10;;;;;;4996608;28;20414;-67
2022/05/09 07:10:15;;;;;;;4.00;3.20;;;18.00;74.20;;;;;;4996956;28;20914;-68
2022/05/09 07:12:42;;;;;;;4.33;2.80;;;18.00;74.30;;;;;;4996344;28;20467;-67
2022/05/09 07:15:08;;;;;;;4.17;2.60;;;18.00;74.60;;;;;;4997276;28;20413;-67
2022/05/09 07:17:37;;;;;;;3.97;2.60;;;18.00;74.60;;;;;;4996583;28;20424;-67
2022/05/09 07:20:04;;;;;;;3.47;3.07;;;18.00;74.60;;;;;;4964565;28;20447;-67
2022/05/09 07:22:30;;;;;;;3.47;2.80;;;18.00;74.50;;;;;;5014168;28;20459;-67
2022/05/09 07:24:59;;;;;;;5.70;3.33;;;18.00;74.50;;;;;;5014068;28;20448;-67
2022/05/09 07:27:24;;;;;;;2.50;2.30;;;18.00;74.50;;;;;;5014001;28;20397;-67
2022/05/09 07:29:57;;;;;;;3.90;2.77;;;18.00;74.50;;;;;;5014094;28;21025;-67
2022/05/09 07:32:23;;;;;;;4.47;2.73;;;18.00;74.60;;;;;;5013906;28;20443;-67
2022/05/09 07:34:51;;;;;;;2.93;2.47;;;18.00;74.60;;;;;;4996366;28;20425;-67
2022/05/09 07:37:21;;;;;;;4.20;2.53;;;18.10;74.80;;;;;;4996021;28;20487;-67
2022/05/09 07:39:49;;;;;;;3.00;2.50;;;18.10;74.80;;;;;;5013882;28;20804;-67
2022/05/09 07:42:15;;;;;;;3.90;2.97;;;18.10;74.80;;;;;;5013748;28;20405;-67
2022/05/09 07:44:41;;;;;;;3.73;2.50;;;18.10;74.80;;;;;;5013667;28;20185;-67
2022/05/09 07:47:09;;;;;;;4.43;2.40;;;18.10;74.80;;;;;;4996801;28;20443;-67
2022/05/09 07:49:35;;;;;;;4.03;2.50;;;18.10;74.80;;;;;;4996115;28;20440;-67
2022/05/09 07:52:05;;;;;;;3.60;2.33;;;18.20;75.10;;;;;;4995739;28;20652;-67
2022/05/09 07:54:37;;;;;;;4.50;2.47;;;18.20;75.00;;;;;;5013582;28;20820;-67
2022/05/09 07:57:03;;;;;;;3.30;2.30;;;18.20;75.00;;;;;;5013652;28;20400;-68
2022/05/09 07:59:31;;;;;;;5.53;2.53;;;18.20;75.00;;;;;;4996094;28;20428;-66
2022/05/09 08:02:00;;;;;;;2.63;2.40;;;18.20;75.20;;;;;;5013531;28;20424;-67
2022/05/09 08:04:26;;;;;;;6.70;2.93;;;18.30;75.30;;;;;;4979987;28;20417;-67
2022/05/09 08:06:57;;;;;;;3.83;2.43;;;18.30;75.40;;;;;;5013683;28;20789;-67
2022/05/09 08:09:23;;;;;;;4.83;2.73;;;18.30;75.40;;;;;;5013291;28;20443;-67
2022/05/09 08:11:51;;;;;;;6.87;2.90;;;18.30;75.40;;;;;;4979676;28;20502;-67
2022/05/09 08:14:20;;;;;;;5.60;2.57;;;18.40;75.60;;;;;;4995514;28;20436;-67
2022/05/09 08:16:51;;;;;;;3.67;2.53;;;18.40;75.70;;;;;;5013157;28;20447;-67
2022/05/09 08:19:17;;;;;;;5.40;2.80;;;18.40;75.60;;;;;;4995470;28;20597;-67
2022/05/09 08:21:47;;;;;;;3.37;2.40;;;18.40;75.70;;;;;;5012992;28;20474;-68
2022/05/09 08:24:13;;;;;;;5.17;2.53;;;18.40;75.70;;;;;;4995598;28;20463;-67
2022/05/09 08:26:43;;;;;;;3.30;2.50;;;18.50;76.10;;;;;;5013010;28;20393;-67
2022/05/09 08:29:12;;;;;;;4.03;2.30;;;18.50;76.10;;;;;;4995648;28;20511;-67
2022/05/09 08:31:41;;;;;;;2.80;2.20;;;18.50;76.20;;;;;;5012895;28;20529;-67
2022/05/09 08:34:08;;;;;;;4.40;2.20;;;18.50;76.10;;;;;;5012800;28;20754;-68
2022/05/09 08:36:48;;;;;;;4.00;2.30;;;18.50;76.10;;;;;;5012269;28;20447;-66
2022/05/09 08:39:17;;;;;;;3.73;2.00;;;18.60;76.40;;;;;;5012563;28;20463;-67
2022/05/09 08:42:06;;;;;;;2.70;2.23;;;18.60;76.40;;;;;;4995457;28;20404;-67
2022/05/09 08:44:46;;;;;;;3.60;2.67;;;18.60;76.50;;;;;;5012158;28;20523;-67
2022/05/09 08:47:52;;;;;;;5.23;2.63;;;18.70;76.60;;;;;;4979397;28;20452;-67
2022/05/09 08:50:29;;;;;;;2.73;2.40;;;18.70;76.60;;;;;;4995306;28;20432;-67
2022/05/09 08:52:59;;;;;;;6.37;2.80;;;18.70;76.70;;;;;;4995017;28;20459;-66
2022/05/09 08:55:45;;;;;;;3.83;2.50;;;18.70;76.90;;;;;;5012484;28;20580;-66
2022/05/09 08:58:39;;;;;;;2.90;2.30;;;18.80;77.30;;;;;;4995286;28;20527;-67
2022/05/09 09:01:22;;;;;;;3.10;2.20;;;18.80;77.40;;;;;;4978688;28;20415;-67
2022/05/09 09:04:00;;;;;;;3.43;2.90;;;18.90;77.40;;;;;;4995810;28;20409;-67
2022/05/09 09:06:54;;;;;;;5.53;2.90;;;18.90;77.40;;;;;;5012344;28;20432;-66
2022/05/09 09:10:02;;;;;;;4.83;2.90;;;18.90;77.50;;;;;;4994905;28;20434;-66
2022/05/09 09:12:37;;;;;;;3.10;2.60;;;19.00;77.80;;;;;;4994674;28;20490;-66
2022/05/09 09:15:15;;;;;;;5.93;2.70;;;19.00;77.80;;;;;;4995009;28;20416;-66
2022/05/09 09:17:53;;;;;;;4.83;2.97;;;19.00;77.90;;;;;;4994777;28;20424;-67
2022/05/09 09:20:27;;;;;;;4.10;2.90;;;19.10;78.00;;;;;;4978491;28;20440;-67
2022/05/09 09:23:16;;;;;;;4.97;3.03;;;19.10;78.90;;;;;;4994972;28;20427;-67
2022/05/09 09:25:48;;;;;;;4.30;2.67;;;19.20;78.40;;;;;;5012235;28;20832;-67
2022/05/09 09:28:22;;;;;;;3.43;2.77;;;19.20;78.40;;;;;;4994645;28;20823;-66
2022/05/09 09:30:50;;;;;;;4.23;2.80;;;19.20;78.50;;;;;;4978146;28;20437;-66
2022/05/09 09:33:22;;;;;;;4.60;2.87;;;19.30;78.80;;;;;;4994567;28;20506;-67
2022/05/09 09:36:00;;;;;;;4.57;3.83;;;19.30;78.80;;;;;;5012178;28;20420;-67
2022/05/09 09:38:40;;;;;;;5.43;2.87;;;19.40;78.90;;;;;;4994537;28;21016;-67
2022/05/09 09:41:26;;;;;;;5.30;3.17;;;19.40;78.80;;;;;;4994610;28;20447;-66
2022/05/09 09:44:05;;;;;;;3.43;3.10;;;19.40;78.80;;;;;;4975056;28;20420;-67
2022/05/09 09:46:31;;;;;;;4.00;3.13;;;19.50;78.80;;;;;;4975066;28;20410;-67
2022/05/09 09:49:07;;;;;;;4.93;3.00;;;19.50;78.80;;;;;;4975009;28;20438;-66
2022/05/09 09:51:47;;;;;;;4.73;3.27;;;19.60;78.80;;;;;;4976809;28;20963;-66
2022/05/09 09:54:19;;;;;;;4.13;3.23;;;19.60;78.90;;;;;;4996211;28;20418;-67
2022/05/09 09:56:48;;;;;;;7.00;2.87;;;19.70;79.00;;;;;;4979361;28;20393;-67
2022/05/09 09:59:13;;;;;;;4.93;3.20;;;19.70;79.20;;;;;;4978955;28;20451;-67
2022/05/09 10:01:43;;;;;;;4.80;3.17;;;19.70;79.20;;;;;;4996183;28;20403;-67
2022/05/09 10:04:27;;;;;;;3.50;3.20;;;19.80;79.30;;;;;;4996254;28;20766;-66
2022/05/09 10:07:06;;;;;;;4.33;3.00;;;19.80;79.30;;;;;;4978656;28;20399;-67
2022/05/09 10:10:00;;;;;;;4.80;2.80;;;19.90;79.40;;;;;;4989675;28;20548;-67
2022/05/09 10:12:30;;;;;;;5.80;3.23;;;19.90;79.40;;;;;;4997949;28;20464;-66
2022/05/09 10:15:00;;;;;;;6.23;3.60;;;20.00;79.60;;;;;;5015715;28;20769;-67
2022/05/09 10:17:26;;;;;;;4.67;3.53;;;20.00;79.60;;;;;;5015582;28;20747;-67
2022/05/09 10:19:58;;;;;;;6.03;3.50;;;20.00;79.60;;;;;;5015436;28;20460;-67
2022/05/09 10:25:28;;;;;;;6.57;3.70;;;20.10;79.60;;;;;;4997950;28;20939;-67
2022/05/09 10:28:14;;;;;;;3.97;3.60;;;20.20;79.70;;;;;;4997978;28;20418;-67
2022/05/09 10:30:50;;;;;;;4.70;4.30;;;20.20;79.80;;;;;;4997690;28;20414;-67
2022/05/09 10:33:21;;;;;;;5.80;3.43;;;20.30;79.90;;;;;;5015184;28;20470;-67
2022/05/09 10:35:53;;;;;;;4.30;3.90;;;20.30;79.80;;;;;;4997968;28;20438;-67
2022/05/09 10:38:34;;;;;;;10.67;4.67;;;20.40;79.90;;;;;;4997702;28;20581;-67
2022/05/09 10:41:09;;;;;;;4.63;3.73;;;20.40;79.80;;;;;;5014848;28;20901;-67
2022/05/09 10:44:00;;;;;;;4.90;4.20;;;20.50;79.90;;;;;;5014736;28;20448;-66
2022/05/09 10:46:42;;;;;;;4.63;3.30;;;20.50;79.80;;;;;;5015003;28;20507;-67
2022/05/09 10:49:19;;;;;;;6.60;3.53;;;20.60;79.80;;;;;;4981555;28;20449;-67
2022/05/09 10:52:04;;;;;;;5.13;4.03;;;20.60;79.80;;;;;;5014290;28;20431;-67
2022/05/09 10:54:48;;;;;;;5.33;4.00;;;20.70;80.00;;;;;;5014796;28;20450;-67
2022/05/09 10:57:19;;;;;;;7.17;5.23;;;20.70;80.00;;;;;;4997565;28;20426;-67
2022/05/09 10:59:45;;;;;;;4.70;4.30;;;20.70;80.10;;;;;;4997170;28;20437;-66
2022/05/09 11:02:29;;;;;;;6.53;4.70;;;20.80;80.30;;;;;;4980979;28;20786;-66
2022/05/09 11:04:58;;;;;;;6.80;4.80;;;20.80;80.10;;;;;;4997198;28;20418;-67
2022/05/09 11:07:32;;;;;;;5.70;4.50;;;20.90;80.20;;;;;;5014751;28;20415;-67
2022/05/09 11:10:08;;;;;;;6.80;5.00;;;20.90;80.20;;;;;;4997004;28;20790;-67
2022/05/09 11:12:37;;;;;;;5.07;4.13;;;21.00;80.20;;;;;;5014424;28;20451;-66
2022/05/09 11:15:25;;;;;;;6.50;4.53;;;21.00;80.10;;;;;;4997053;28;20934;-67
2022/05/09 11:18:07;;;;;;;5.87;4.43;;;21.00;80.00;;;;;;4981283;28;20989;-67
2022/05/09 11:20:55;;;;;;;5.67;4.67;;;21.10;80.00;;;;;;5013675;28;20434;-67
2022/05/09 11:23:45;;;;;;;8.27;5.00;;;21.10;80.00;;;;;;5014304;28;20688;-67
2022/05/09 11:26:34;;;;;;;5.40;4.90;;;21.20;80.00;;;;;;5014671;28;20934;-67
2022/05/09 11:29:26;;;;;;;5.37;4.80;;;21.20;80.00;;;;;;4932495;28;20455;-67
2022/05/09 11:32:17;;;;;;;6.70;5.33;;;21.30;80.10;;;;;;5014343;28;20411;-66
2022/05/09 11:35:18;;;;;;;6.43;5.60;;;21.30;79.90;;;;;;5014308;28;20917;-67
2022/05/09 11:37:56;;;;;;;6.13;5.40;;;21.30;79.80;;;;;;4996530;28;20391;-66
2022/05/09 11:40:31;;;;;;;6.17;5.67;;;21.40;79.90;;;;;;4996488;28;20825;-67
2022/05/09 11:43:37;;;;;;;6.00;5.40;;;21.40;79.80;;;;;;4995774;28;20437;-67
2022/05/09 11:46:30;;;;;;;6.30;5.00;;;21.50;79.80;;;;;;4996355;28;20442;-66
2022/05/09 11:49:12;;;;;;;5.70;5.10;;;21.50;79.70;;;;;;4996325;28;20462;-67
2022/05/09 11:51:58;;;;;;;6.67;5.13;;;21.60;79.80;;;;;;4996658;28;20458;-67
2022/05/09 11:54:36;;;;;;;7.87;4.90;;;21.60;79.70;;;;;;5013531;28;20408;-66
2022/05/09 11:57:22;;;;;;;5.40;4.90;;;21.60;79.60;;;;;;4996153;28;20450;-67
2022/05/09 11:59:52;;;;;;;6.13;4.87;;;21.70;79.60;;;;;;5013622;28;20569;-67
2022/05/09 12:02:49;;;;;;;6.17;5.23;;;21.70;79.40;;;;;;4996348;28;20467;-67
2022/05/09 12:05:40;;;;;;;6.80;5.53;;;21.80;79.30;;;;;;4979883;28;20457;-67
2022/05/09 12:08:22;;;;;;;5.90;5.10;;;21.80;79.20;;;;;;5008016;28;20491;-67
2022/05/09 12:11:16;;;;;;;5.97;5.10;;;21.80;79.00;;;;;;5013447;28;20415;-66
2022/05/09 12:13:42;;;;;;;6.10;5.60;;;21.90;78.90;;;;;;4979499;28;21015;-67
2022/05/09 12:16:10;;;;;;;4.70;4.30;;;21.90;78.80;;;;;;4978781;28;20438;-67
2022/05/09 12:19:05;;;;;;;8.30;5.30;;;22.00;78.80;;;;;;5013350;28;20463;-67
2022/05/09 12:21:37;;;;;;;6.10;5.27;;;22.00;78.60;;;;;;5012679;28;20431;-67
2022/05/09 12:24:14;;;;;;;6.27;5.40;;;22.00;78.60;;;;;;5012964;28;21165;-66
2022/05/09 12:26:48;;;;;;;5.57;5.07;;;22.10;78.60;;;;;;5013202;28;20439;-67
2022/05/09 12:29:17;;;;;;;7.50;5.33;;;22.10;78.30;;;;;;4995671;28;20447;-67
2022/05/09 12:31:53;;;;;;;6.43;4.63;;;22.20;78.10;;;;;;4995397;28;20416;-67
2022/05/09 12:34:33;;;;;;;6.23;5.43;;;22.20;77.90;;;;;;4995761;28;20419;-67
2022/05/09 12:37:01;;;;;;;5.43;4.93;;;22.20;77.60;;;;;;5012537;28;20485;-67
2022/05/09 12:39:55;;;;;;;7.03;4.67;;;22.30;77.40;;;;;;4995626;28;20440;-67
2022/05/09 12:42:47;;;;;;;6.10;5.53;;;22.30;77.40;;;;;;5012523;28;20517;-67
2022/05/09 12:45:16;;;;;;;6.10;5.07;;;22.30;76.90;;;;;;4995475;28;20495;-66
2022/05/09 12:47:43;;;;;;;8.47;5.30;;;22.40;76.60;;;;;;4978835;28;20485;-67
2022/05/09 12:50:13;;;;;;;6.17;5.60;;;22.40;76.50;;;;;;4979114;28;20415;-67
2022/05/09 12:52:43;;;;;;;6.13;5.33;;;22.50;76.70;;;;;;4994845;28;20576;-66
2022/05/09 12:57:58;;;;;;;5.80;5.30;;;22.50;76.50;;;;;;4995209;28;20467;-67
2022/05/09 13:00:30;;;;;;;6.87;5.27;;;22.60;76.70;;;;;;4995110;28;20420;-67
2022/05/09 13:03:06;;;;;;;6.70;5.27;;;22.60;76.70;;;;;;4994821;28;20577;-66
2022/05/09 13:05:36;;;;;;;7.33;4.70;;;22.70;76.70;;;;;;4995105;28;20405;-67
2022/05/09 13:08:09;;;;;;;6.23;5.07;;;22.70;76.40;;;;;;4994308;28;20514;-67
2022/05/09 13:10:49;;;;;;;6.03;5.33;;;22.70;76.10;;;;;;4994893;28;20820;-67
2022/05/09 13:13:30;;;;;;;5.30;4.50;;;22.80;76.20;;;;;;4994533;28;20451;-66
2022/05/09 13:15:57;;;;;;;5.57;5.00;;;22.80;76.20;;;;;;4978668;28;20459;-67
2022/05/09 13:18:26;;;;;;;6.47;5.40;;;22.80;76.10;;;;;;4994730;28;20438;-67
2022/05/09 13:21:08;;;;;;;5.03;4.63;;;22.90;76.30;;;;;;4995095;28;20411;-67
2022/05/09 13:23:41;;;;;;;5.00;4.50;;;23.00;76.40;;;;;;4994481;28;20423;-67
2022/05/09 13:26:15;;;;;;;5.50;4.70;;;23.00;76.40;;;;;;5011829;28;20423;-67
2022/05/09 13:29:09;;;;;;;5.47;4.90;;;23.10;76.50;;;;;;4994834;28;20478;-67
2022/05/09 13:31:41;;;;;;;5.63;4.93;;;23.10;76.40;;;;;;4994639;28;20399;-67